Time;durP1;ratioP1;P1;durP2;ratioP2;P2;SDS_P1;SDS_P2;PMS_P1;PMS_P2;Temp;Humidity;BMP_temperature;BMP_pressure;BME280_temperature;BME280_humidity;BME280_pressure;Samples;Min_cycle;Max_cycle;Signal;HPM_P1;HPM_P2
2023/06/01 00:02:20;;;;;;;9.95;6.38;;;;;;;;;;5045478;28;20025;-66
2023/06/01 00:04:48;;;;;;;15.80;6.03;;;;;;;;;;5046734;28;20036;-66
2023/06/01 00:07:14;;;;;;;8.20;6.22;;;;;;;;;;5046892;28;20036;-67
2023/06/01 00:09:39;;;;;;;7.50;5.13;;;;;;;;;;5044073;28;20508;-66
2023/06/01 00:12:06;;;;;;;14.80;5.72;;;;;;;;;;5046662;28;20033;-66
2023/06/01 00:14:32;;;;;;;7.53;6.05;;;;;;;;;;5046669;28;20071;-66
2023/06/01 00:16:58;;;;;;;7.47;5.90;;;;;;;;;;5046580;28;20033;-66
2023/06/01 00:19:25;;;;;;;10.75;5.75;;;;;;;;;;5044241;28;20400;-66
2023/06/01 00:21:53;;;;;;;7.57;5.82;;;;;;;;;;5046091;28;20055;-66
2023/06/01 00:24:20;;;;;;;11.45;7.07;;;;;;;;;;5046464;28;20400;-66
2023/06/01 00:26:46;;;;;;;9.93;6.65;;;;;;;;;;5044143;28;20377;-66
2023/06/01 00:29:13;;;;;;;7.07;6.38;;;;;;;;;;5045977;28;20103;-66
2023/06/01 00:31:38;;;;;;;8.55;6.07;;;;;;;;;;5044491;28;20068;-67
2023/06/01 00:34:04;;;;;;;9.50;6.47;;;;;;;;;;5043626;28;20148;-66
2023/06/01 00:36:31;;;;;;;8.20;6.38;;;;;;;;;;5045271;28;20044;-67
2023/06/01 00:39:01;;;;;;;9.27;5.88;;;;;;;;;;5046128;28;20033;-66
2023/06/01 00:41:28;;;;;;;8.90;7.05;;;;;;;;;;5046658;28;20075;-67
2023/06/01 00:43:53;;;;;;;6.50;5.80;;;;;;;;;;5043885;28;20043;-66
2023/06/01 00:46:19;;;;;;;7.13;6.35;;;;;;;;;;5044886;28;20033;-66
2023/06/01 00:48:45;;;;;;;7.97;5.93;;;;;;;;;;5044832;28;20041;-66
2023/06/01 00:51:12;;;;;;;7.85;6.47;;;;;;;;;;5042818;28;20091;-66
2023/06/01 00:53:38;;;;;;;6.72;5.88;;;;;;;;;;5044285;28;20041;-66
2023/06/01 00:56:03;;;;;;;7.43;6.03;;;;;;;;;;5045340;28;20544;-66
2023/06/01 00:58:30;;;;;;;6.50;5.90;;;;;;;;;;5045381;28;20035;-66
2023/06/01 01:00:55;;;;;;;7.22;6.22;;;;;;;;;;5043771;28;20064;-66
2023/06/01 01:03:25;;;;;;;5.90;5.40;;;;;;;;;;5045989;28;20506;-67
2023/06/01 01:06:02;;;;;;;6.75;6.15;;;;;;;;;;5044664;28;20037;-66
2023/06/01 01:08:32;;;;;;;7.10;6.40;;;;;;;;;;5042516;28;20051;-66
2023/06/01 01:11:08;;;;;;;6.30;5.68;;;;;;;;;;5043130;28;20044;-66
2023/06/01 01:13:40;;;;;;;7.63;5.93;;;;;;;;;;5044332;28;20049;-66
2023/06/01 01:16:27;;;;;;;7.15;6.28;;;;;;;;;;5045847;28;20036;-66
2023/06/01 01:19:07;;;;;;;6.25;5.75;;;;;;;;;;5041400;28;20120;-67
2023/06/01 01:21:38;;;;;;;6.60;6.10;;;;;;;;;;5044122;28;20048;-66
2023/06/01 01:24:11;;;;;;;8.13;5.97;;;;;;;;;;5044137;28;20028;-66
2023/06/01 01:27:05;;;;;;;5.88;5.38;;;;;;;;;;5042563;28;20505;-66
2023/06/01 01:29:32;;;;;;;6.22;5.68;;;;;;;;;;5043635;28;20027;-66
2023/06/01 01:32:00;;;;;;;6.80;6.20;;;;;;;;;;5045256;28;20058;-66
2023/06/01 01:34:28;;;;;;;6.57;5.90;;;;;;;;;;5045008;28;20572;-66
2023/06/01 01:36:55;;;;;;;6.82;6.18;;;;;;;;;;5041874;28;20040;-66
2023/06/01 01:39:20;;;;;;;8.48;6.25;;;;;;;;;;5043418;28;20029;-66
2023/06/01 01:41:46;;;;;;;8.27;5.72;;;;;;;;;;5043873;28;20048;-66
2023/06/01 01:44:14;;;;;;;6.38;5.72;;;;;;;;;;5041551;28;20044;-66
2023/06/01 01:47:09;;;;;;;8.13;6.13;;;;;;;;;;5043438;28;20036;-66
2023/06/01 01:49:43;;;;;;;10.05;6.00;;;;;;;;;;5043403;28;20037;-66
2023/06/01 01:52:21;;;;;;;9.15;5.82;;;;;;;;;;5042100;28;20112;-66
2023/06/01 01:54:49;;;;;;;8.48;5.95;;;;;;;;;;5042787;28;20044;-66
2023/06/01 01:57:17;;;;;;;6.57;5.97;;;;;;;;;;5043499;28;20037;-66
2023/06/01 01:59:45;;;;;;;5.72;5.32;;;;;;;;;;5044685;28;20092;-65
2023/06/01 02:02:11;;;;;;;6.70;5.85;;;;;;;;;;5042408;28;20424;-66
2023/06/01 02:04:45;;;;;;;6.32;5.53;;;;;;;;;;5044901;28;20036;-66
2023/06/01 02:07:12;;;;;;;5.93;5.50;;;;;;;;;;5042782;28;20383;-66
2023/06/01 02:09:39;;;;;;;7.25;5.72;;;;;;;;;;5043308;28;20041;-66
2023/06/01 02:12:06;;;;;;;9.52;5.78;;;;;;;;;;5042203;28;20542;-66
2023/06/01 02:14:33;;;;;;;7.38;5.80;;;;;;;;;;5043494;28;20116;-66
2023/06/01 02:17:00;;;;;;;6.13;5.45;;;;;;;;;;5043242;28;20086;-67
2023/06/01 02:19:26;;;;;;;8.15;5.78;;;;;;;;;;5042274;28;20087;-66
2023/06/01 02:21:52;;;;;;;8.65;6.10;;;;;;;;;;5043523;28;20040;-66
2023/06/01 02:24:18;;;;;;;7.95;6.07;;;;;;;;;;5044592;28;20033;-66
2023/06/01 02:26:53;;;;;;;6.35;5.78;;;;;;;;;;5042493;28;20029;-66
2023/06/01 02:29:22;;;;;;;5.85;5.35;;;;;;;;;;5042231;28;20132;-66
2023/06/01 02:31:53;;;;;;;6.40;5.80;;;;;;;;;;5043266;28;20094;-66
2023/06/01 02:34:19;;;;;;;12.55;6.05;;;;;;;;;;5040730;28;20057;-66
2023/06/01 02:36:46;;;;;;;6.97;6.10;;;;;;;;;;5042912;28;20075;-66
2023/06/01 02:39:12;;;;;;;6.68;6.07;;;;;;;;;;5042856;28;20518;-66
2023/06/01 02:41:39;;;;;;;6.18;5.65;;;;;;;;;;5040911;28;20044;-66
2023/06/01 02:44:04;;;;;;;6.38;5.82;;;;;;;;;;5042256;28;20040;-66
2023/06/01 02:46:30;;;;;;;7.25;5.90;;;;;;;;;;5043133;28;20079;-66
2023/06/01 02:48:55;;;;;;;7.75;6.25;;;;;;;;;;5033245;28;20087;-66
2023/06/01 02:51:21;;;;;;;8.48;5.75;;;;;;;;;;5039146;28;20037;-66
2023/06/01 02:53:51;;;;;;;6.30;5.70;;;;;;;;;;5045821;28;20041;-66
2023/06/01 02:56:17;;;;;;;8.10;6.07;;;;;;;;;;5042855;28;20044;-66
2023/06/01 02:58:54;;;;;;;6.22;5.75;;;;;;;;;;5040619;28;20408;-66
2023/06/01 03:01:26;;;;;;;6.65;6.03;;;;;;;;;;5043080;28;20044;-66
2023/06/01 03:03:52;;;;;;;10.55;6.63;;;;;;;;;;5042857;28;20025;-66
2023/06/01 03:06:21;;;;;;;7.05;6.32;;;;;;;;;;5043114;28;20029;-66
2023/06/01 03:09:13;;;;;;;7.60;6.25;;;;;;;;;;5022358;28;20514;-66
2023/06/01 03:11:50;;;;;;;8.43;5.90;;;;;;;;;;5042204;28;20041;-66
2023/06/01 03:14:17;;;;;;;6.95;6.25;;;;;;;;;;5042649;28;20040;-66
2023/06/01 03:16:42;;;;;;;6.30;5.78;;;;;;;;;;5040699;28;20465;-66
2023/06/01 03:19:14;;;;;;;7.78;6.43;;;;;;;;;;5044082;28;20031;-67
2023/06/01 03:21:41;;;;;;;6.28;5.68;;;;;;;;;;5046708;28;20052;-66
2023/06/01 03:24:07;;;;;;;6.32;5.82;;;;;;;;;;5044484;28;20032;-66
2023/06/01 03:26:33;;;;;;;6.65;6.05;;;;;;;;;;5047403;28;20029;-67
2023/06/01 03:28:59;;;;;;;6.68;6.05;;;;;;;;;;5044357;28;20037;-66
2023/06/01 03:31:25;;;;;;;7.13;5.85;;;;;;;;;;5046241;28;20056;-66
2023/06/01 03:33:54;;;;;;;6.22;5.72;;;;;;;;;;5044432;28;20033;-67
2023/06/01 03:36:20;;;;;;;10.48;6.15;;;;;;;;;;5046172;28;20194;-67
2023/06/01 03:38:46;;;;;;;6.45;5.90;;;;;;;;;;5043636;28;20029;-67
2023/06/01 03:41:12;;;;;;;7.57;6.88;;;;;;;;;;5046130;28;20450;-67
2023/06/01 03:43:37;;;;;;;7.47;6.70;;;;;;;;;;5046188;28;20709;-68
2023/06/01 03:46:03;;;;;;;7.18;6.10;;;;;;;;;;5046067;28;20032;-67
2023/06/01 03:48:29;;;;;;;6.72;6.05;;;;;;;;;;5043986;28;20037;-67
2023/06/01 03:50:55;;;;;;;6.53;5.95;;;;;;;;;;5044844;28;20053;-67
2023/06/01 03:53:22;;;;;;;7.30;6.30;;;;;;;;;;5045630;28;20075;-67
2023/06/01 03:55:48;;;;;;;6.50;5.90;;;;;;;;;;5041731;28;20036;-67
2023/06/01 03:58:28;;;;;;;6.43;5.88;;;;;;;;;;5045518;28;20033;-68
2023/06/01 04:00:54;;;;;;;6.75;6.15;;;;;;;;;;5045315;28;20419;-67
2023/06/01 04:03:22;;;;;;;7.25;6.20;;;;;;;;;;5045583;28;20041;-67
2023/06/01 04:05:50;;;;;;;7.60;6.80;;;;;;;;;;5044053;28;20036;-67
2023/06/01 04:08:16;;;;;;;7.20;6.55;;;;;;;;;;5046866;28;20896;-67
2023/06/01 04:10:42;;;;;;;6.78;5.95;;;;;;;;;;5047024;28;20068;-67
2023/06/01 04:13:08;;;;;;;8.20;6.18;;;;;;;;;;5043777;28;20095;-67
2023/06/01 04:15:34;;;;;;;8.80;6.38;;;;;;;;;;5043543;28;20072;-67
2023/06/01 04:18:01;;;;;;;7.88;6.72;;;;;;;;;;5045291;28;20036;-68
2023/06/01 04:20:32;;;;;;;6.45;5.95;;;;;;;;;;5045600;28;20037;-68
2023/06/01 04:22:58;;;;;;;6.80;6.05;;;;;;;;;;5045555;28;20739;-67
2023/06/01 04:25:24;;;;;;;6.65;6.00;;;;;;;;;;5043387;28;20056;-67
2023/06/01 04:27:54;;;;;;;8.30;6.40;;;;;;;;;;5028995;28;20053;-67
2023/06/01 04:30:22;;;;;;;7.85;6.00;;;;;;;;;;5044183;28;20072;-68
2023/06/01 04:32:48;;;;;;;6.78;6.18;;;;;;;;;;5043747;28;20044;-67
2023/06/01 04:35:14;;;;;;;6.70;5.95;;;;;;;;;;5045419;28;20037;-67
2023/06/01 04:37:41;;;;;;;6.43;5.93;;;;;;;;;;5045509;28;20043;-67
2023/06/01 04:40:09;;;;;;;9.27;6.93;;;;;;;;;;5042922;28;20059;-67
2023/06/01 04:42:38;;;;;;;7.90;6.00;;;;;;;;;;5042610;28;20029;-68
2023/06/01 04:45:10;;;;;;;6.57;5.97;;;;;;;;;;5045044;28;20037;-68
2023/06/01 04:47:39;;;;;;;7.80;6.55;;;;;;;;;;5043180;28;20061;-67
2023/06/01 04:50:08;;;;;;;7.05;6.35;;;;;;;;;;5043102;28;20041;-68
2023/06/01 04:52:35;;;;;;;7.22;6.55;;;;;;;;;;5050589;28;20068;-67
2023/06/01 04:55:02;;;;;;;8.30;6.47;;;;;;;;;;5047313;28;20032;-67
2023/06/01 04:57:27;;;;;;;9.50;6.63;;;;;;;;;;5042854;28;20039;-67
2023/06/01 04:59:56;;;;;;;7.05;6.35;;;;;;;;;;5036550;28;20036;-68
2023/06/01 05:02:24;;;;;;;6.88;5.93;;;;;;;;;;5049807;28;20028;-67
2023/06/01 05:04:50;;;;;;;7.22;6.57;;;;;;;;;;5039626;28;20166;-67
2023/06/01 05:07:16;;;;;;;7.65;6.40;;;;;;;;;;5045402;28;20119;-68
2023/06/01 05:09:41;;;;;;;8.45;6.80;;;;;;;;;;5044710;28;20412;-67
2023/06/01 05:12:07;;;;;;;6.80;6.28;;;;;;;;;;5043802;28;20035;-68
2023/06/01 05:14:33;;;;;;;7.80;7.10;;;;;;;;;;5041516;28;20471;-68
2023/06/01 05:17:00;;;;;;;7.63;7.00;;;;;;;;;;5044318;28;20051;-68
2023/06/01 05:19:25;;;;;;;10.18;6.80;;;;;;;;;;5042609;28;20047;-68
2023/06/01 05:21:53;;;;;;;7.05;6.43;;;;;;;;;;5040187;28;20060;-68
2023/06/01 05:24:19;;;;;;;8.40;6.07;;;;;;;;;;5043576;28;20393;-68
2023/06/01 05:26:45;;;;;;;6.80;6.20;;;;;;;;;;5043803;28;20546;-68
2023/06/01 05:29:11;;;;;;;9.15;6.13;;;;;;;;;;5043229;28;20108;-68
2023/06/01 05:31:37;;;;;;;7.30;5.65;;;;;;;;;;5043150;28;20120;-68
2023/06/01 05:34:03;;;;;;;6.80;6.18;;;;;;;;;;5044094;28;20033;-68
2023/06/01 05:36:31;;;;;;;6.47;5.88;;;;;;;;;;5044122;28;20147;-68
2023/06/01 05:38:58;;;;;;;7.90;6.10;;;;;;;;;;5043771;28;20077;-68
2023/06/01 05:41:25;;;;;;;7.00;6.30;;;;;;;;;;5042673;28;20569;-68
2023/06/01 05:43:52;;;;;;;9.60;6.45;;;;;;;;;;5044246;28;20025;-68
2023/06/01 05:46:18;;;;;;;9.77;6.43;;;;;;;;;;5044085;28;20497;-68
2023/06/01 05:48:44;;;;;;;6.70;6.00;;;;;;;;;;5042763;28;20051;-67
2023/06/01 05:51:12;;;;;;;6.72;6.10;;;;;;;;;;5043801;28;20514;-68
2023/06/01 05:53:38;;;;;;;7.97;5.80;;;;;;;;;;5044120;28;20037;-68
2023/06/01 05:56:04;;;;;;;7.70;6.57;;;;;;;;;;5043699;28;20033;-68
2023/06/01 05:58:30;;;;;;;7.05;6.30;;;;;;;;;;5042282;28;20524;-68
2023/06/01 06:00:57;;;;;;;10.70;6.65;;;;;;;;;;5043939;28;20040;-67
2023/06/01 06:03:22;;;;;;;7.28;6.40;;;;;;;;;;5045325;28;20025;-68
2023/06/01 06:05:49;;;;;;;7.47;5.95;;;;;;;;;;5043020;28;20040;-68
2023/06/01 06:08:15;;;;;;;9.48;7.00;;;;;;;;;;5042849;28;20033;-68
2023/06/01 06:10:41;;;;;;;6.43;5.88;;;;;;;;;;5044440;28;20082;-68
2023/06/01 06:13:07;;;;;;;9.00;6.47;;;;;;;;;;5045129;28;20033;-68
2023/06/01 06:15:32;;;;;;;7.60;5.82;;;;;;;;;;5044880;28;20036;-68
2023/06/01 06:17:58;;;;;;;6.70;5.95;;;;;;;;;;5043707;28;20052;-68
2023/06/01 06:20:23;;;;;;;7.05;6.45;;;;;;;;;;5045576;28;20480;-68
2023/06/01 06:22:51;;;;;;;8.75;6.70;;;;;;;;;;5045386;28;20549;-68
2023/06/01 06:25:16;;;;;;;8.13;5.85;;;;;;;;;;5044957;28;20539;-68
2023/06/01 06:27:42;;;;;;;6.25;5.50;;;;;;;;;;5042241;28;20028;-68
2023/06/01 06:30:08;;;;;;;7.50;5.93;;;;;;;;;;5044384;28;20041;-68
2023/06/01 06:32:34;;;;;;;9.32;5.53;;;;;;;;;;5044884;28;20055;-68
2023/06/01 06:35:00;;;;;;;10.68;5.40;;;;;;;;;;5044869;28;20033;-68
2023/06/01 06:37:26;;;;;;;6.15;5.35;;;;;;;;;;5043855;28;20378;-68
2023/06/01 06:39:51;;;;;;;5.75;4.90;;;;;;;;;;5043053;28;20312;-68
2023/06/01 06:42:17;;;;;;;6.13;4.93;;;;;;;;;;5045151;28;20029;-68
2023/06/01 06:44:42;;;;;;;6.00;5.22;;;;;;;;;;5044728;28;20067;-68
2023/06/01 06:47:08;;;;;;;5.30;4.90;;;;;;;;;;5042331;28;20037;-68
2023/06/01 06:49:33;;;;;;;8.05;5.32;;;;;;;;;;5044285;28;20037;-68
2023/06/01 06:51:59;;;;;;;5.57;5.07;;;;;;;;;;5045033;28;20033;-68
2023/06/01 06:54:24;;;;;;;5.75;4.60;;;;;;;;;;5044272;28;20559;-68
2023/06/01 06:56:50;;;;;;;5.63;4.85;;;;;;;;;;5048694;28;20040;-68
2023/06/01 06:59:16;;;;;;;7.30;5.10;;;;;;;;;;5043967;28;20031;-68
2023/06/01 07:01:41;;;;;;;7.95;5.65;;;;;;;;;;5052586;28;20500;-68
2023/06/01 07:04:08;;;;;;;5.20;4.70;;;;;;;;;;5048726;28;20028;-67
2023/06/01 07:06:34;;;;;;;6.13;4.80;;;;;;;;;;5048220;28;20052;-68
2023/06/01 07:09:00;;;;;;;7.45;4.40;;;;;;;;;;5048207;28;20396;-68
2023/06/01 07:11:27;;;;;;;7.60;4.63;;;;;;;;;;5046249;28;20507;-68
2023/06/01 07:13:53;;;;;;;6.35;4.57;;;;;;;;;;5048191;28;20761;-68
2023/06/01 07:16:19;;;;;;;5.15;4.20;;;;;;;;;;5048106;28;20508;-68
2023/06/01 07:18:44;;;;;;;8.35;5.15;;;;;;;;;;5046770;28;20071;-68
2023/06/01 07:21:10;;;;;;;7.10;5.05;;;;;;;;;;5047102;28;20399;-68
2023/06/01 07:23:35;;;;;;;8.23;4.85;;;;;;;;;;5047881;28;20036;-68
2023/06/01 07:26:01;;;;;;;7.30;4.60;;;;;;;;;;5047806;28;20544;-68
2023/06/01 07:28:28;;;;;;;6.95;4.80;;;;;;;;;;5045331;28;20028;-68
2023/06/01 07:30:53;;;;;;;5.97;4.60;;;;;;;;;;5047837;28;20389;-68
2023/06/01 07:33:20;;;;;;;7.13;4.35;;;;;;;;;;5047753;28;20037;-68
2023/06/01 07:35:45;;;;;;;7.85;4.65;;;;;;;;;;5046827;28;20288;-68
2023/06/01 07:38:11;;;;;;;9.35;5.00;;;;;;;;;;5047168;28;20045;-68
2023/06/01 07:40:37;;;;;;;7.22;4.57;;;;;;;;;;5047594;28;20036;-68
2023/06/01 07:43:02;;;;;;;6.43;4.60;;;;;;;;;;5047908;28;20397;-68
2023/06/01 07:45:28;;;;;;;5.68;4.60;;;;;;;;;;5045796;28;20029;-67
2023/06/01 07:47:53;;;;;;;5.85;4.40;;;;;;;;;;5047406;28;20029;-68
2023/06/01 07:50:19;;;;;;;5.25;4.40;;;;;;;;;;5047457;28;20047;-68
2023/06/01 07:52:45;;;;;;;5.97;5.00;;;;;;;;;;5045309;28;20111;-68
2023/06/01 07:55:11;;;;;;;4.40;4.00;;;;;;;;;;5047330;28;20112;-68
2023/06/01 07:57:36;;;;;;;4.60;4.20;;;;;;;;;;5047382;28;20028;-68
2023/06/01 08:00:07;;;;;;;4.65;4.13;;;;;;;;;;5046108;28;20068;-68
2023/06/01 08:02:35;;;;;;;6.00;4.57;;;;;;;;;;5046819;28;20045;-68
2023/06/01 08:05:01;;;;;;;6.85;4.30;;;;;;;;;;5046581;28;20036;-68
2023/06/01 08:07:29;;;;;;;5.97;4.03;;;;;;;;;;5046684;28;20067;-68
2023/06/01 08:09:55;;;;;;;9.00;4.25;;;;;;;;;;5045033;28;20458;-68
2023/06/01 08:12:21;;;;;;;10.10;4.28;;;;;;;;;;5046989;28;20040;-68
2023/06/01 08:14:47;;;;;;;6.80;4.30;;;;;;;;;;5044625;28;20059;-68
2023/06/01 08:17:13;;;;;;;6.47;4.50;;;;;;;;;;5041550;28;20484;-68
2023/06/01 08:19:41;;;;;;;5.50;4.45;;;;;;;;;;5042864;28;20041;-68
2023/06/01 08:22:07;;;;;;;7.15;4.55;;;;;;;;;;5043348;28;20041;-68
2023/06/01 08:24:33;;;;;;;5.72;4.28;;;;;;;;;;5041019;28;20509;-68
2023/06/01 08:26:58;;;;;;;7.50;4.03;;;;;;;;;;5043551;28;20523;-68
2023/06/01 08:29:24;;;;;;;5.75;3.78;;;;;;;;;;5042838;28;20338;-68
2023/06/01 08:31:49;;;;;;;4.55;3.95;;;;;;;;;;5043331;28;20037;-68
2023/06/01 08:34:15;;;;;;;5.78;4.30;;;;;;;;;;5040620;28;20033;-68
2023/06/01 08:36:41;;;;;;;6.18;4.10;;;;;;;;;;5043589;28;20082;-68
2023/06/01 08:39:23;;;;;;;5.13;3.90;;;;;;;;;;5042458;28;20033;-68
2023/06/01 08:42:08;;;;;;;5.85;4.13;;;;;;;;;;5043183;28;20041;-68
2023/06/01 08:44:38;;;;;;;4.78;3.97;;;;;;;;;;5038882;28;20029;-68
2023/06/01 08:47:04;;;;;;;4.95;4.45;;;;;;;;;;5043414;28;20098;-68
2023/06/01 08:49:31;;;;;;;5.85;4.07;;;;;;;;;;5042205;28;20044;-68
2023/06/01 08:51:59;;;;;;;5.50;3.75;;;;;;;;;;5040984;28;20534;-68
2023/06/01 08:54:26;;;;;;;5.10;4.45;;;;;;;;;;5042470;28;20041;-68
2023/06/01 08:56:52;;;;;;;5.03;4.00;;;;;;;;;;5042736;28;20472;-68
2023/06/01 08:59:17;;;;;;;8.23;3.92;;;;;;;;;;5042015;28;20032;-68
2023/06/01 09:01:43;;;;;;;5.45;4.10;;;;;;;;;;5039638;28;20041;-68
2023/06/01 09:04:09;;;;;;;5.40;3.95;;;;;;;;;;5042108;28;20484;-68
2023/06/01 09:06:36;;;;;;;6.25;4.30;;;;;;;;;;5042352;28;20037;-68
2023/06/01 09:09:02;;;;;;;5.13;3.90;;;;;;;;;;5039822;28;20033;-68
2023/06/01 09:11:28;;;;;;;7.10;4.45;;;;;;;;;;5042077;28;20029;-68
2023/06/01 09:13:53;;;;;;;5.85;4.10;;;;;;;;;;5042112;28;20485;-68
2023/06/01 09:16:19;;;;;;;7.30;4.03;;;;;;;;;;5042290;28;20052;-68
2023/06/01 09:18:55;;;;;;;4.88;3.92;;;;;;;;;;5038257;28;20045;-68
2023/06/01 09:21:21;;;;;;;5.95;4.32;;;;;;;;;;5042549;28;20041;-68
2023/06/01 09:23:47;;;;;;;4.38;3.97;;;;;;;;;;5042965;28;20484;-67
2023/06/01 09:26:14;;;;;;;4.00;3.70;;;;;;;;;;5043532;28;20033;-67
2023/06/01 09:28:55;;;;;;;5.95;4.18;;;;;;;;;;5045164;28;20035;-68
2023/06/01 09:31:36;;;;;;;4.95;3.92;;;;;;;;;;5046233;28;20079;-68
2023/06/01 09:34:03;;;;;;;4.65;4.25;;;;;;;;;;5043333;28;20681;-67
2023/06/01 09:36:29;;;;;;;5.38;3.90;;;;;;;;;;5045516;28;20029;-67
2023/06/01 09:39:02;;;;;;;5.85;4.40;;;;;;;;;;5044988;28;20037;-68
2023/06/01 09:41:53;;;;;;;4.82;3.97;;;;;;;;;;5045267;28;20041;-67
2023/06/01 09:44:33;;;;;;;5.07;4.18;;;;;;;;;;5043065;28;20025;-67
2023/06/01 09:47:01;;;;;;;4.93;3.90;;;;;;;;;;5045288;28;20443;-67
2023/06/01 09:49:31;;;;;;;9.15;4.93;;;;;;;;;;5044800;28;20025;-67
2023/06/01 09:52:05;;;;;;;5.60;4.05;;;;;;;;;;5042816;28;20043;-68
2023/06/01 09:54:38;;;;;;;7.85;4.53;;;;;;;;;;5045244;28;20139;-67
2023/06/01 09:57:05;;;;;;;5.30;4.25;;;;;;;;;;5041973;28;20021;-68
2023/06/01 09:59:41;;;;;;;4.30;3.90;;;;;;;;;;5044614;28;20507;-67
2023/06/01 10:02:10;;;;;;;6.40;4.00;;;;;;;;;;5044842;28;20063;-67
2023/06/01 10:04:39;;;;;;;6.07;4.35;;;;;;;;;;5041126;28;20044;-68
2023/06/01 10:07:05;;;;;;;7.53;4.65;;;;;;;;;;5044929;28;20043;-67
2023/06/01 10:09:33;;;;;;;6.03;3.75;;;;;;;;;;5044895;28;20061;-68
2023/06/01 10:11:59;;;;;;;7.38;4.00;;;;;;;;;;5044289;28;20033;-68
2023/06/01 10:14:25;;;;;;;5.10;4.00;;;;;;;;;;5041086;28;20032;-67
2023/06/01 10:16:52;;;;;;;7.05;4.22;;;;;;;;;;5044223;28;20401;-68
2023/06/01 10:19:19;;;;;;;5.57;3.83;;;;;;;;;;5043528;28;20033;-67
2023/06/01 10:21:48;;;;;;;6.22;3.97;;;;;;;;;;5040907;28;20055;-68
2023/06/01 10:24:15;;;;;;;7.05;4.28;;;;;;;;;;5044257;28;20028;-68
2023/06/01 10:27:07;;;;;;;7.70;3.90;;;;;;;;;;5044363;28;20025;-68
2023/06/01 10:29:33;;;;;;;4.32;3.70;;;;;;;;;;5040722;28;20033;-68
2023/06/01 10:31:59;;;;;;;4.25;3.85;;;;;;;;;;5044243;28;20116;-67
2023/06/01 10:34:39;;;;;;;7.40;3.92;;;;;;;;;;5044399;28;20182;-68
2023/06/01 10:37:05;;;;;;;5.15;4.18;;;;;;;;;;5044442;28;20063;-68
2023/06/01 10:39:34;;;;;;;4.00;3.60;;;;;;;;;;5042965;28;20524;-68
2023/06/01 10:42:12;;;;;;;6.72;3.78;;;;;;;;;;5044345;28;20037;-68
2023/06/01 10:44:41;;;;;;;6.43;4.03;;;;;;;;;;5044417;28;20036;-67
2023/06/01 10:47:12;;;;;;;6.43;4.00;;;;;;;;;;5041364;28;20447;-67
2023/06/01 10:49:47;;;;;;;5.28;4.00;;;;;;;;;;5043250;28;20036;-68
2023/06/01 10:52:40;;;;;;;4.97;3.63;;;;;;;;;;5040409;28;20040;-67
2023/06/01 10:55:06;;;;;;;4.47;3.88;;;;;;;;;;5042714;28;20140;-67
2023/06/01 10:57:38;;;;;;;5.35;3.78;;;;;;;;;;5042033;28;20128;-68
2023/06/01 11:00:17;;;;;;;4.78;3.90;;;;;;;;;;5043410;28;20619;-68
2023/06/01 11:02:44;;;;;;;4.03;3.70;;;;;;;;;;5043708;28;20078;-68
2023/06/01 11:05:37;;;;;;;5.18;3.50;;;;;;;;;;5040755;28;20041;-68
2023/06/01 11:08:19;;;;;;;4.13;3.72;;;;;;;;;;5043204;28;20041;-68
2023/06/01 11:10:55;;;;;;;4.70;4.00;;;;;;;;;;5043595;28;20075;-68
2023/06/01 11:13:22;;;;;;;5.55;4.40;;;;;;;;;;5044253;28;20142;-68
2023/06/01 11:16:14;;;;;;;4.72;4.22;;;;;;;;;;5041719;28;20044;-68
2023/06/01 11:18:57;;;;;;;5.05;4.10;;;;;;;;;;5043857;28;20570;-68
2023/06/01 11:21:24;;;;;;;5.85;3.95;;;;;;;;;;5044645;28;20044;-68
2023/06/01 11:23:51;;;;;;;6.13;4.30;;;;;;;;;;5042136;28;20048;-68
2023/06/01 11:26:19;;;;;;;4.40;4.00;;;;;;;;;;5042280;28;20029;-68
2023/06/01 11:28:46;;;;;;;4.80;4.35;;;;;;;;;;5043894;28;20044;-68
2023/06/01 11:31:14;;;;;;;5.28;4.78;;;;;;;;;;5044050;28;20086;-67
2023/06/01 11:33:40;;;;;;;5.13;4.45;;;;;;;;;;5040214;28;20036;-67
2023/06/01 11:36:10;;;;;;;4.88;4.47;;;;;;;;;;5044658;28;20033;-67
2023/06/01 11:38:40;;;;;;;5.38;4.88;;;;;;;;;;5042871;28;20041;-67
2023/06/01 11:41:07;;;;;;;5.28;4.68;;;;;;;;;;5045893;28;20114;-68
2023/06/01 11:43:33;;;;;;;5.53;5.03;;;;;;;;;;5047900;28;20033;-68
2023/06/01 11:46:06;;;;;;;5.88;5.25;;;;;;;;;;5048080;28;20474;-68
2023/06/01 11:48:34;;;;;;;7.38;4.70;;;;;;;;;;5046888;28;20481;-67
2023/06/01 11:51:00;;;;;;;7.22;4.93;;;;;;;;;;5045062;28;20507;-68
2023/06/01 11:53:29;;;;;;;8.82;5.03;;;;;;;;;;5047924;28;20480;-67
2023/06/01 11:55:55;;;;;;;7.05;5.30;;;;;;;;;;5046038;28;20526;-67
2023/06/01 11:58:24;;;;;;;5.32;4.82;;;;;;;;;;5047179;28;20036;-68
2023/06/01 12:00:51;;;;;;;4.68;4.28;;;;;;;;;;5045369;28;20242;-68
2023/06/01 12:03:16;;;;;;;5.55;4.70;;;;;;;;;;5046148;28;20384;-68
2023/06/01 12:05:45;;;;;;;5.18;4.50;;;;;;;;;;5047528;28;20219;-67
2023/06/01 12:08:16;;;;;;;5.53;5.03;;;;;;;;;;5044963;28;20071;-68
2023/06/01 12:10:44;;;;;;;7.20;5.00;;;;;;;;;;5047157;28;20041;-68
2023/06/01 12:13:11;;;;;;;6.10;5.00;;;;;;;;;;5045896;28;20044;-68
2023/06/01 12:15:37;;;;;;;6.05;5.45;;;;;;;;;;5046823;28;20045;-67
2023/06/01 12:18:03;;;;;;;5.40;4.90;;;;;;;;;;5044753;28;20118;-67
2023/06/01 12:20:35;;;;;;;5.63;5.00;;;;;;;;;;5046551;28;20067;-68
2023/06/01 12:23:05;;;;;;;7.25;5.22;;;;;;;;;;5041651;28;20556;-68
2023/06/01 12:25:31;;;;;;;5.95;5.13;;;;;;;;;;5044416;28;20028;-68
2023/06/01 12:28:04;;;;;;;6.97;5.43;;;;;;;;;;5044262;28;20263;-68
2023/06/01 12:30:30;;;;;;;5.90;5.30;;;;;;;;;;5044762;28;20037;-67
2023/06/01 12:32:56;;;;;;;5.90;5.40;;;;;;;;;;5042279;28;20087;-68
2023/06/01 12:35:23;;;;;;;6.20;5.70;;;;;;;;;;5044557;28;20094;-68
2023/06/01 12:38:10;;;;;;;5.88;5.38;;;;;;;;;;5044101;28;20049;-68
2023/06/01 12:40:36;;;;;;;6.07;5.57;;;;;;;;;;5042575;28;20060;-68
2023/06/01 12:43:06;;;;;;;6.07;5.57;;;;;;;;;;5044792;28;20064;-68
2023/06/01 12:45:36;;;;;;;6.38;5.88;;;;;;;;;;5044603;28;20026;-67
2023/06/01 12:48:01;;;;;;;6.28;5.68;;;;;;;;;;5043187;28;20044;-68
2023/06/01 12:50:27;;;;;;;7.15;5.68;;;;;;;;;;5043689;28;20495;-68
2023/06/01 12:52:52;;;;;;;7.30;5.93;;;;;;;;;;5044004;28;20086;-68
2023/06/01 12:55:19;;;;;;;6.38;5.75;;;;;;;;;;5044447;28;20157;-68
2023/06/01 12:57:52;;;;;;;6.78;5.78;;;;;;;;;;5042094;28;20044;-68
2023/06/01 13:00:19;;;;;;;5.43;5.03;;;;;;;;;;5044117;28;20039;-68
2023/06/01 13:02:48;;;;;;;5.93;5.43;;;;;;;;;;5044143;28;20047;-68
2023/06/01 13:05:16;;;;;;;5.85;5.35;;;;;;;;;;5044031;28;20029;-68
2023/06/01 13:07:41;;;;;;;7.00;5.10;;;;;;;;;;5042428;28;20033;-67
2023/06/01 13:10:08;;;;;;;6.90;4.95;;;;;;;;;;5042057;28;20040;-68
2023/06/01 13:12:34;;;;;;;7.75;5.53;;;;;;;;;;5043968;28;20253;-68
2023/06/01 13:15:00;;;;;;;7.47;5.18;;;;;;;;;;5042218;28;20032;-67
2023/06/01 13:17:26;;;;;;;6.07;5.28;;;;;;;;;;5043665;28;20044;-67
2023/06/01 13:19:52;;;;;;;5.97;5.47;;;;;;;;;;5043610;28;20033;-67
2023/06/01 13:22:18;;;;;;;6.10;5.45;;;;;;;;;;5044206;28;20041;-67
2023/06/01 13:24:44;;;;;;;6.07;5.57;;;;;;;;;;5042110;28;20404;-67
2023/06/01 13:27:10;;;;;;;5.45;4.95;;;;;;;;;;5042513;28;20036;-67
2023/06/01 13:29:35;;;;;;;6.32;5.72;;;;;;;;;;5040419;28;20045;-67
2023/06/01 13:32:01;;;;;;;5.82;5.30;;;;;;;;;;5042545;28;20048;-68
2023/06/01 13:34:26;;;;;;;5.97;5.47;;;;;;;;;;5042973;28;20059;-68
2023/06/01 13:36:52;;;;;;;5.85;5.35;;;;;;;;;;5043670;28;20405;-68
2023/06/01 13:39:18;;;;;;;5.70;5.20;;;;;;;;;;5042924;28;20072;-68
2023/06/01 13:41:43;;;;;;;6.13;5.53;;;;;;;;;;5041825;28;20033;-67
2023/06/01 13:44:09;;;;;;;5.90;5.38;;;;;;;;;;5043452;28;20481;-68
2023/06/01 13:46:34;;;;;;;6.22;5.40;;;;;;;;;;5043095;28;20037;-67
2023/06/01 13:49:00;;;;;;;5.60;5.18;;;;;;;;;;5041497;28;20045;-68
2023/06/01 13:51:26;;;;;;;6.65;5.28;;;;;;;;;;5040284;28;20516;-68
2023/06/01 13:53:51;;;;;;;6.22;5.72;;;;;;;;;;5043445;28;20040;-68
2023/06/01 13:56:17;;;;;;;6.18;5.28;;;;;;;;;;5043648;28;20037;-67
2023/06/01 13:58:42;;;;;;;5.93;5.35;;;;;;;;;;5041326;28;20076;-68
2023/06/01 14:01:08;;;;;;;7.28;6.20;;;;;;;;;;5043123;28;20762;-67
2023/06/01 14:03:33;;;;;;;8.75;5.53;;;;;;;;;;5040599;28;20040;-68
2023/06/01 14:05:59;;;;;;;5.93;5.35;;;;;;;;;;5042079;28;20044;-68
2023/06/01 14:08:24;;;;;;;7.70;5.63;;;;;;;;;;5041693;28;20536;-68
2023/06/01 14:10:50;;;;;;;6.50;5.90;;;;;;;;;;5042204;28;20040;-68
2023/06/01 14:13:15;;;;;;;6.10;5.60;;;;;;;;;;5040933;28;20041;-67
2023/06/01 14:15:41;;;;;;;6.05;5.38;;;;;;;;;;5042961;28;20509;-68
2023/06/01 14:18:07;;;;;;;6.18;5.57;;;;;;;;;;5040185;28;20515;-68
2023/06/01 14:20:34;;;;;;;6.30;5.68;;;;;;;;;;5040155;28;20033;-68
2023/06/01 14:23:00;;;;;;;6.05;5.55;;;;;;;;;;5040967;28;20035;-68
2023/06/01 14:25:25;;;;;;;5.75;5.20;;;;;;;;;;5042657;28;20037;-68
2023/06/01 14:27:51;;;;;;;6.30;5.70;;;;;;;;;;5044084;28;20094;-68
2023/06/01 14:30:17;;;;;;;5.95;5.35;;;;;;;;;;5042681;28;20673;-68
2023/06/01 14:32:42;;;;;;;7.40;5.95;;;;;;;;;;5042229;28;20543;-68
2023/06/01 14:35:08;;;;;;;6.20;5.25;;;;;;;;;;5044240;28;20045;-68
2023/06/01 14:37:33;;;;;;;6.00;5.50;;;;;;;;;;5043045;28;20029;-68
2023/06/01 14:39:59;;;;;;;6.00;5.40;;;;;;;;;;5043402;28;20139;-68
2023/06/01 14:42:25;;;;;;;5.57;5.07;;;;;;;;;;5044636;28;20033;-68
2023/06/01 14:44:50;;;;;;;6.53;5.15;;;;;;;;;;5044297;28;20029;-68
2023/06/01 14:47:16;;;;;;;6.95;5.20;;;;;;;;;;5043229;28;20032;-68
2023/06/01 14:49:41;;;;;;;5.60;5.10;;;;;;;;;;5044119;28;20493;-68